createdAt,value
2016-05-06T00:00:09.257Z,78.18
2016-05-06T00:00:19.275Z,78.18
2016-05-06T00:00:29.275Z,78.41
2016-05-06T00:00:39.275Z,78.56
2016-05-06T00:00:49.291Z,78.56
2016-05-06T00:00:59.291Z,78.56
2016-05-06T00:01:09.291Z,78.56
2016-05-06T00:01:19.308Z,78.66
2016-05-06T00:01:29.308Z,78.37
2016-05-06T00:01:39.308Z,78.47
2016-05-06T00:01:49.324Z,78.47
2016-05-06T00:01:59.324Z,78.37
2016-05-06T00:02:09.324Z,78.37
2016-05-06T00:02:19.343Z,78.18
2016-05-06T00:02:29.343Z,78.37
2016-05-06T00:02:39.343Z,78.56
2016-05-06T00:02:49.359Z,78.66
2016-05-06T00:02:59.359Z,78.56
2016-05-06T00:03:09.359Z,78.47
2016-05-06T00:03:19.362Z,78.56
2016-05-06T00:03:29.378Z,78.85
2016-05-06T00:03:39.378Z,78.56
2016-05-06T00:03:49.378Z,78.66
2016-05-06T00:03:59.393Z,78.75
2016-05-06T00:04:09.393Z,78.85
2016-05-06T00:04:19.411Z,78.85
2016-05-06T00:04:29.411Z,78.94
2016-05-06T00:04:39.411Z,78.66
2016-05-06T00:04:49.411Z,78.75
2016-05-06T00:04:59.427Z,78.94
2016-05-06T00:05:09.427Z,78.85
2016-05-06T00:05:19.429Z,78.56
2016-05-06T00:05:29.444Z,78.85
2016-05-06T00:05:39.444Z,78.75
2016-05-06T00:05:49.444Z,78.85
2016-05-06T00:05:59.444Z,78.56
2016-05-06T00:06:09.460Z,78.56
2016-05-06T00:06:19.463Z,78.85
2016-05-06T00:06:29.463Z,79.14
2016-05-06T00:06:39.478Z,79.23
2016-05-06T00:06:49.478Z,78.94
2016-05-06T00:06:59.478Z,79.04
2016-05-06T00:07:09.494Z,79.33
2016-05-06T00:07:19.496Z,79.04
2016-05-06T00:07:29.512Z,79.33
2016-05-06T00:07:39.512Z,79.52
2016-05-06T00:07:49.512Z,79.14
2016-05-06T00:07:59.512Z,79.33
2016-05-06T00:08:09.527Z,79.14
2016-05-06T00:08:19.531Z,79.04
2016-05-06T00:08:29.531Z,79.04
2016-05-06T00:08:39.547Z,79.23
2016-05-06T00:08:49.547Z,79.14
2016-05-06T00:08:59.547Z,79.14
2016-05-06T00:09:09.563Z,79.04
2016-05-06T00:09:19.565Z,79.23
2016-05-06T00:09:29.565Z,79.23
2016-05-06T00:09:39.565Z,79.23
2016-05-06T00:09:49.580Z,79.04
2016-05-06T00:09:59.580Z,79.04
2016-05-06T00:10:09.580Z,79.23
2016-05-06T00:10:19.786Z,79.23
2016-05-06T00:10:29.599Z,79.14
2016-05-06T00:10:39.599Z,79.04
2016-05-06T00:10:49.614Z,79.33
2016-05-06T00:10:59.786Z,79.23
2016-05-06T00:11:09.614Z,79.61
2016-05-06T00:11:19.632Z,79.33
2016-05-06T00:11:29.632Z,79.33
2016-05-06T00:11:39.648Z,79.33
2016-05-06T00:11:49.648Z,79.52
2016-05-06T00:11:59.648Z,79.61
2016-05-06T00:12:09.648Z,79.52
2016-05-06T00:12:19.683Z,79.71
2016-05-06T00:12:29.667Z,79.71
2016-05-06T00:12:39.667Z,79.71
2016-05-06T00:12:50.324Z,79.71
2016-05-06T00:12:59.683Z,79.43
2016-05-06T00:13:09.683Z,79.52
2016-05-06T00:13:19.701Z,79.61
2016-05-06T00:13:29.701Z,79.71
2016-05-06T00:13:39.701Z,79.52
2016-05-06T00:13:49.701Z,79.71
2016-05-06T00:13:59.716Z,79.71
2016-05-06T00:14:09.716Z,79.52
2016-05-06T00:14:19.719Z,79.61
2016-05-06T00:14:29.735Z,79.61
2016-05-06T00:14:39.735Z,79.52
2016-05-06T00:14:49.750Z,79.8
2016-05-06T00:14:59.750Z,79.61
2016-05-06T00:15:09.750Z,79.9
2016-05-06T00:15:19.752Z,79.9
2016-05-06T00:15:29.752Z,79.8
2016-05-06T00:15:39.768Z,79.71
2016-05-06T00:15:49.768Z,80.19
2016-05-06T00:15:59.784Z,79.99
2016-05-06T00:16:09.784Z,80.09
2016-05-06T00:16:19.787Z,79.9
2016-05-06T00:16:29.787Z,79.9
2016-05-06T00:16:39.802Z,79.99
2016-05-06T00:16:49.802Z,79.9
2016-05-06T00:16:59.818Z,79.8
2016-05-06T00:17:09.818Z,79.71
2016-05-06T00:17:19.820Z,79.9
2016-05-06T00:17:29.820Z,79.9
2016-05-06T00:17:39.820Z,79.8
2016-05-06T00:17:49.836Z,79.71
2016-05-06T00:17:59.851Z,79.71
2016-05-06T00:18:09.851Z,79.8
2016-05-06T00:18:19.855Z,79.71
2016-05-06T00:18:29.855Z,79.71
2016-05-06T00:18:39.855Z,79.61
2016-05-06T00:18:49.871Z,79.8
2016-05-06T00:18:59.871Z,79.99
2016-05-06T00:19:09.871Z,80.09
2016-05-06T00:19:19.888Z,80.28
2016-05-06T00:19:29.888Z,80.09
2016-05-06T00:19:39.888Z,79.99
2016-05-06T00:19:49.904Z,80.09
2016-05-06T00:19:59.904Z,80.19
2016-05-06T00:20:09.904Z,80.09
2016-05-06T00:20:19.922Z,80.09
2016-05-06T00:20:29.937Z,80.19
2016-05-06T00:20:39.931Z,80.19
2016-05-06T00:20:49.931Z,80.47
2016-05-06T00:20:59.931Z,80.09
2016-05-06T00:21:09.946Z,80.28
2016-05-06T00:21:19.950Z,80.09
2016-05-06T00:21:29.950Z,80.09
2016-05-06T00:21:39.966Z,80.28
2016-05-06T00:21:49.966Z,80.28
2016-05-06T00:21:59.966Z,80.28
2016-05-06T00:22:09.981Z,80.38
2016-05-06T00:22:19.983Z,80.19
2016-05-06T00:22:29.983Z,79.99
2016-05-06T00:22:39.999Z,80.57
2016-05-06T00:22:49.999Z,80.66
2016-05-06T00:22:59.999Z,80.57
2016-05-06T00:23:09.999Z,80.38
2016-05-06T00:23:20.018Z,80.47
2016-05-06T00:23:30.018Z,80.09
2016-05-06T00:23:40.018Z,80.57
2016-05-06T00:23:50.033Z,80.47
2016-05-06T00:24:00.033Z,80.47
2016-05-06T00:24:10.033Z,80.57
2016-05-06T00:24:20.051Z,80.19
2016-05-06T00:24:30.051Z,80.28
2016-05-06T00:24:40.051Z,80.09
2016-05-06T00:24:50.067Z,80.19
2016-05-06T00:25:00.067Z,80.19
2016-05-06T00:25:10.067Z,80.28
2016-05-06T00:25:20.085Z,80.19
2016-05-06T00:25:30.429Z,80.85
2016-05-06T00:25:40.085Z,80.57
2016-05-06T00:25:50.366Z,80.57
2016-05-06T00:26:00.101Z,80.47
2016-05-06T00:26:10.101Z,80.66
2016-05-06T00:26:20.119Z,80.76
2016-05-06T00:26:30.119Z,80.85
2016-05-06T00:26:40.119Z,80.66
2016-05-06T00:26:50.119Z,80.47
2016-05-06T00:27:00.119Z,80.47
2016-05-06T00:27:10.135Z,80.66
2016-05-06T00:27:20.138Z,81.04
2016-05-06T00:27:30.154Z,80.57
2016-05-06T00:27:40.154Z,80.95
2016-05-06T00:27:50.154Z,81.04
2016-05-06T00:28:00.169Z,81.14
2016-05-06T00:28:10.169Z,80.76
2016-05-06T00:28:20.171Z,80.85
2016-05-06T00:28:30.171Z,80.85
2016-05-06T00:28:40.187Z,81.04
2016-05-06T00:28:50.187Z,80.85
2016-05-06T00:29:00.187Z,80.85
2016-05-06T00:29:10.203Z,81.33
2016-05-06T00:29:20.206Z,80.76
2016-05-06T00:29:30.206Z,80.66
2016-05-06T00:29:40.221Z,81.14
2016-05-06T00:29:50.221Z,81.14
2016-05-06T00:30:00.221Z,81.33
2016-05-06T00:30:10.237Z,81.33
2016-05-06T00:30:20.240Z,80.76
2016-05-06T00:30:30.240Z,80.66
2016-05-06T00:30:40.255Z,81.14
2016-05-06T00:30:50.255Z,81.24
2016-05-06T00:31:00.255Z,81.24
2016-05-06T00:31:10.255Z,80.95
2016-05-06T00:31:20.273Z,80.85
2016-05-06T00:31:30.273Z,80.85
2016-05-06T00:31:40.273Z,80.85
2016-05-06T00:31:50.289Z,80.85
2016-05-06T00:32:00.289Z,80.85
2016-05-06T00:32:10.289Z,80.76
2016-05-06T00:32:20.307Z,80.85
2016-05-06T00:32:30.307Z,80.85
2016-05-06T00:32:40.307Z,81.43
2016-05-06T00:32:50.323Z,80.66
2016-05-06T00:33:00.323Z,80.95
2016-05-06T00:33:10.323Z,80.85
2016-05-06T00:33:20.342Z,80.85
2016-05-06T00:33:30.342Z,80.85
2016-05-06T00:33:40.342Z,80.81
2016-05-06T00:33:50.357Z,81.04
2016-05-06T00:34:00.357Z,80.85
2016-05-06T00:34:10.357Z,80.85
2016-05-06T00:34:20.359Z,80.95
2016-05-06T00:34:30.375Z,80.95
2016-05-06T00:34:40.375Z,81.04
2016-05-06T00:34:50.375Z,80.85
2016-05-06T00:35:00.390Z,81.01
2016-05-06T00:35:10.390Z,80.91
2016-05-06T00:35:20.394Z,81.38
2016-05-06T00:35:30.410Z,81.04
2016-05-06T00:35:40.410Z,81.24
2016-05-06T00:35:50.410Z,81.24
2016-05-06T00:36:00.426Z,81.48
2016-05-06T00:36:10.426Z,81.62
2016-05-06T00:36:20.428Z,81.43
2016-05-06T00:36:30.443Z,81.43
2016-05-06T00:36:40.443Z,81.24
2016-05-06T00:36:50.443Z,81.43
2016-05-06T00:37:00.443Z,81.48
2016-05-06T00:37:10.459Z,81.33
2016-05-06T00:37:20.461Z,81.58
2016-05-06T00:37:30.461Z,81.62
2016-05-06T00:37:40.477Z,81.1
2016-05-06T00:37:50.477Z,81.52
2016-05-06T00:38:00.492Z,81.62
2016-05-06T00:38:10.492Z,81.52
2016-05-06T00:38:20.495Z,81.38
2016-05-06T00:38:30.495Z,81.43
2016-05-06T00:38:40.511Z,81.24
2016-05-06T00:38:50.511Z,81.33
2016-05-06T00:39:00.511Z,81.81
2016-05-06T00:39:10.511Z,81.33
2016-05-06T00:39:20.529Z,81.43
2016-05-06T00:39:30.529Z,81.86
2016-05-06T00:39:40.529Z,81.77
2016-05-06T00:39:50.545Z,81.9
2016-05-06T00:40:00.545Z,81.86
2016-05-06T00:40:10.561Z,81.67
2016-05-06T00:40:20.891Z,81.38
2016-05-06T00:40:30.563Z,81.52
2016-05-06T00:40:40.563Z,81.52
2016-05-06T00:40:50.578Z,81.67
2016-05-06T00:41:00.594Z,81.9
2016-05-06T00:41:10.578Z,81.86
2016-05-06T00:41:20.597Z,82.06
2016-05-06T00:41:30.597Z,81.96
2016-05-06T00:41:40.597Z,81.86
2016-05-06T00:41:50.613Z,81.86
2016-05-06T00:42:00.613Z,82.06
2016-05-06T00:42:10.613Z,82.06
2016-05-06T00:42:20.616Z,81.86
2016-05-06T00:42:30.631Z,81.67
2016-05-06T00:42:40.631Z,81.96
2016-05-06T00:42:50.631Z,82.06
2016-05-06T00:43:00.647Z,82.06
2016-05-06T00:43:10.647Z,82.06
2016-05-06T00:43:20.650Z,81.77
2016-05-06T00:43:30.665Z,82.06
2016-05-06T00:43:40.665Z,81.96
2016-05-06T00:43:50.665Z,81.96
2016-05-06T00:44:00.681Z,81.86
2016-05-06T00:44:10.681Z,81.67
2016-05-06T00:44:20.683Z,81.86
2016-05-06T00:44:30.699Z,81.96
2016-05-06T00:44:40.699Z,81.96
2016-05-06T00:44:50.699Z,81.86
2016-05-06T00:45:00.714Z,81.96
2016-05-06T00:45:10.714Z,81.96
2016-05-06T00:45:20.717Z,81.96
2016-05-06T00:45:30.733Z,82.34
2016-05-06T00:45:40.733Z,82.63
2016-05-06T00:45:50.733Z,82.06
2016-05-06T00:46:00.733Z,82.72
2016-05-06T00:46:10.749Z,82.63
2016-05-06T00:46:20.751Z,82.82
2016-05-06T00:46:30.751Z,82.34
2016-05-06T00:46:40.766Z,82.53
2016-05-06T00:46:50.766Z,82.72
2016-05-06T00:47:00.797Z,82.72
2016-05-06T00:47:10.782Z,82.53
2016-05-06T00:47:20.785Z,82.53
2016-05-06T00:47:30.800Z,82.63
2016-05-06T00:47:40.800Z,82.43
2016-05-06T00:47:50.800Z,82.34
2016-05-06T00:48:00.800Z,82.53
2016-05-06T00:48:10.800Z,82.53
2016-05-06T00:48:20.819Z,82.63
2016-05-06T00:48:30.819Z,82.24
2016-05-06T00:48:40.819Z,82.53
2016-05-06T00:48:50.835Z,82.53
2016-05-06T00:49:00.835Z,82.43
2016-05-06T00:49:10.835Z,82.63
2016-05-06T00:49:20.853Z,82.63
2016-05-06T00:49:30.853Z,82.63
2016-05-06T00:49:40.853Z,82.43
2016-05-06T00:49:50.869Z,82.53
2016-05-06T00:50:00.869Z,82.72
2016-05-06T00:50:10.869Z,82.53
2016-05-06T00:50:20.871Z,83.01
2016-05-06T00:50:30.887Z,82.82
2016-05-06T00:50:40.887Z,82.63
2016-05-06T00:50:50.887Z,82.63
2016-05-06T00:51:00.902Z,82.72
2016-05-06T00:51:10.902Z,82.63
2016-05-06T00:51:20.905Z,82.82
2016-05-06T00:51:30.921Z,82.91
2016-05-06T00:51:40.921Z,82.53
2016-05-06T00:51:50.936Z,82.72
2016-05-06T00:52:00.936Z,82.72
2016-05-06T00:52:10.936Z,83.29
2016-05-06T00:52:20.939Z,83.01
2016-05-06T00:52:30.939Z,83.2
2016-05-06T00:52:40.955Z,83.11
2016-05-06T00:52:50.955Z,83.11
2016-05-06T00:53:00.955Z,83.11
2016-05-06T00:53:10.971Z,82.91
2016-05-06T00:53:20.974Z,83.01
2016-05-06T00:53:30.974Z,83.11
2016-05-06T00:53:40.989Z,82.91
2016-05-06T00:53:50.989Z,83.01
2016-05-06T00:54:00.989Z,83.11
2016-05-06T00:54:11.005Z,82.91
2016-05-06T00:54:21.007Z,82.82
2016-05-06T00:54:31.007Z,83.2
2016-05-06T00:54:41.023Z,83.01
2016-05-06T00:54:51.023Z,83.39
2016-05-06T00:55:01.023Z,82.82
2016-05-06T00:55:11.038Z,82.72
2016-05-06T00:55:21.041Z,82.82
2016-05-06T00:55:31.041Z,83.11
2016-05-06T00:55:41.057Z,82.82
2016-05-06T00:55:51.057Z,83.2
2016-05-06T00:56:01.057Z,83.67
2016-05-06T00:56:11.072Z,83.01
2016-05-06T00:56:21.075Z,83.39
2016-05-06T00:56:31.075Z,83.01
2016-05-06T00:56:41.075Z,83.48
2016-05-06T00:56:51.091Z,83.58
2016-05-06T00:57:01.091Z,83.39
2016-05-06T00:57:11.091Z,83.29
2016-05-06T00:57:21.109Z,83.29
2016-05-06T00:57:31.109Z,83.48
2016-05-06T00:57:41.109Z,83.39
2016-05-06T00:57:51.109Z,83.39
2016-05-06T00:58:01.124Z,83.39
2016-05-06T00:58:11.124Z,83.2
2016-05-06T00:58:21.127Z,83.39
2016-05-06T00:58:31.143Z,83.2
2016-05-06T00:58:41.143Z,83.58
2016-05-06T00:58:51.143Z,83.2
2016-05-06T00:59:01.159Z,83.58
2016-05-06T00:59:11.159Z,83.77
2016-05-06T00:59:21.176Z,83.2
2016-05-06T00:59:31.176Z,83.67
2016-05-06T00:59:41.176Z,83.48
2016-05-06T00:59:51.192Z,83.58
2016-05-06T01:00:01.176Z,83.48
2016-05-06T01:00:11.192Z,83.39
2016-05-06T01:00:21.196Z,83.11
2016-05-06T01:00:31.196Z,83.39
2016-05-06T01:00:41.211Z,83.58
2016-05-06T01:00:51.211Z,83.58
2016-05-06T01:01:01.211Z,83.48
2016-05-06T01:01:11.227Z,83.77
2016-05-06T01:01:21.229Z,83.58
2016-05-06T01:01:31.229Z,83.39
2016-05-06T01:01:41.245Z,83.77
2016-05-06T01:01:51.245Z,83.29
2016-05-06T01:02:01.260Z,83.87
2016-05-06T01:02:11.260Z,83.67
2016-05-06T01:02:21.263Z,83.87
2016-05-06T01:02:31.279Z,83.87
2016-05-06T01:02:41.279Z,84.06
2016-05-06T01:02:51.279Z,84.06
2016-05-06T01:03:01.279Z,83.87
2016-05-06T01:03:11.279Z,84.25
2016-05-06T01:03:21.297Z,84.25
2016-05-06T01:03:31.297Z,83.67
2016-05-06T01:03:41.297Z,83.77
2016-05-06T01:03:51.312Z,83.87
2016-05-06T01:04:01.312Z,83.77
2016-05-06T01:04:11.312Z,84.06
2016-05-06T01:04:21.331Z,83.67
2016-05-06T01:04:31.331Z,83.87
2016-05-06T01:04:41.331Z,83.87
2016-05-06T01:04:51.346Z,83.96
2016-05-06T01:05:01.346Z,83.67
2016-05-06T01:05:11.346Z,83.58
2016-05-06T01:05:21.349Z,83.77
2016-05-06T01:05:31.365Z,83.48
2016-05-06T01:05:41.365Z,83.58
2016-05-06T01:05:51.365Z,83.87
2016-05-06T01:06:01.381Z,84.16
2016-05-06T01:06:11.381Z,83.96
2016-05-06T01:06:21.384Z,84.06
2016-05-06T01:06:31.399Z,83.58
2016-05-06T01:06:41.399Z,83.96
2016-05-06T01:06:51.399Z,83.87
2016-05-06T01:07:01.415Z,83.77
2016-05-06T01:07:11.415Z,84.16
2016-05-06T01:07:21.417Z,84.06
2016-05-06T01:07:31.417Z,83.87
2016-05-06T01:07:41.479Z,83.96
2016-05-06T01:07:51.511Z,84.16
2016-05-06T01:08:01.542Z,83.48
2016-05-06T01:08:11.542Z,84.06
2016-05-06T01:08:21.498Z,83.96
2016-05-06T01:08:31.514Z,84.06
2016-05-06T01:08:41.529Z,84.06
2016-05-06T01:08:51.545Z,84.16
2016-05-06T01:09:01.545Z,83.58
2016-05-06T01:09:11.576Z,83.67
2016-05-06T01:09:21.532Z,83.58
2016-05-06T01:09:31.595Z,84.16
2016-05-06T01:09:41.548Z,83.58
2016-05-06T01:09:51.579Z,84.34
2016-05-06T01:10:01.595Z,84.53
2016-05-06T01:10:11.595Z,84.06
2016-05-06T01:10:21.597Z,83.87
2016-05-06T01:10:31.612Z,84.44
2016-05-06T01:10:41.659Z,84.25
2016-05-06T01:10:51.581Z,84.16
2016-05-06T01:11:01.862Z,84.06
2016-05-06T01:11:11.628Z,83.96
2016-05-06T01:11:21.584Z,84.06
2016-05-06T01:11:31.584Z,83.87
2016-05-06T01:11:41.600Z,83.87
2016-05-06T01:11:51.647Z,84.25
2016-05-06T01:12:01.569Z,83.87
2016-05-06T01:12:11.569Z,83.58
2016-05-06T01:12:21.571Z,83.87
2016-05-06T01:12:31.586Z,83.87
2016-05-06T01:12:41.586Z,83.67
2016-05-06T01:12:51.602Z,83.77
2016-05-06T01:13:01.602Z,84.25
2016-05-06T01:13:11.602Z,83.96
2016-05-06T01:13:21.606Z,83.77
2016-05-06T01:13:31.621Z,84.25
2016-05-06T01:13:41.621Z,83.96
2016-05-06T01:13:51.621Z,84.34
2016-05-06T01:14:01.637Z,84.44
2016-05-06T01:14:11.637Z,84.16
2016-05-06T01:14:21.639Z,84.16
2016-05-06T01:14:31.639Z,84.16
2016-05-06T01:14:41.655Z,84.25
2016-05-06T01:14:51.655Z,84.34
2016-05-06T01:15:01.655Z,84.25
2016-05-06T01:15:11.670Z,84.16
2016-05-06T01:15:21.673Z,84.25
2016-05-06T01:15:31.689Z,84.34
2016-05-06T01:15:41.689Z,84.92
2016-05-06T01:15:51.689Z,84.34
2016-05-06T01:16:01.705Z,84.06
2016-05-06T01:16:11.705Z,84.34
2016-05-06T01:16:21.707Z,85.01
2016-05-06T01:16:31.707Z,84.16
2016-05-06T01:16:41.707Z,84.25
2016-05-06T01:16:51.722Z,84.53
2016-05-06T01:17:01.738Z,84.72
2016-05-06T01:17:11.722Z,84.53
2016-05-06T01:17:21.741Z,84.53
2016-05-06T01:17:31.741Z,84.63
2016-05-06T01:17:41.741Z,84.44
2016-05-06T01:17:51.756Z,84.63
2016-05-06T01:18:01.756Z,84.72
2016-05-06T01:18:11.756Z,84.72
2016-05-06T01:18:21.775Z,84.53
2016-05-06T01:18:31.775Z,84.44
2016-05-06T01:18:41.775Z,84.53
2016-05-06T01:18:51.791Z,84.44
2016-05-06T01:19:01.791Z,84.63
2016-05-06T01:19:11.791Z,84.53
2016-05-06T01:19:21.809Z,84.44
2016-05-06T01:19:31.809Z,84.63
2016-05-06T01:19:41.809Z,84.34
2016-05-06T01:19:51.809Z,84.44
2016-05-06T01:20:01.825Z,84.44
2016-05-06T01:20:11.825Z,84.53
2016-05-06T01:20:21.827Z,84.34
2016-05-06T01:20:31.843Z,84.34
2016-05-06T01:20:41.843Z,84.44
2016-05-06T01:20:51.843Z,84.44
2016-05-06T01:21:01.858Z,84.16
2016-05-06T01:21:11.858Z,84.25
2016-05-06T01:21:21.860Z,84.34
2016-05-06T01:21:31.876Z,84.92
2016-05-06T01:21:41.876Z,84.72
2016-05-06T01:21:51.876Z,84.63
2016-05-06T01:22:01.891Z,84.72
2016-05-06T01:22:11.891Z,84.72
2016-05-06T01:22:21.895Z,85.11
2016-05-06T01:22:31.895Z,84.92
2016-05-06T01:22:41.911Z,85.11
2016-05-06T01:22:51.911Z,84.92
2016-05-06T01:23:01.911Z,84.92
2016-05-06T01:23:11.927Z,84.92
2016-05-06T01:23:21.929Z,84.97
2016-05-06T01:23:31.929Z,85.06
2016-05-06T01:23:41.929Z,85.01
2016-05-06T01:23:51.944Z,84.88
2016-05-06T01:24:01.944Z,85.11
2016-05-06T01:24:11.944Z,85.11
2016-05-06T01:24:21.963Z,85.3
2016-05-06T01:24:31.963Z,85.3
2016-05-06T01:24:41.963Z,84.92
2016-05-06T01:24:51.979Z,84.97
2016-05-06T01:25:01.979Z,85.3
2016-05-06T01:25:11.979Z,84.92
2016-05-06T01:25:21.996Z,84.97
2016-05-06T01:25:31.996Z,85.06
2016-05-06T01:25:42.012Z,85.3
2016-05-06T01:25:52.199Z,85.49
2016-05-06T01:26:02.012Z,85.25
2016-05-06T01:26:12.012Z,85.39
2016-05-06T01:26:22.016Z,85.49
2016-05-06T01:26:32.031Z,85.21
2016-05-06T01:26:42.031Z,85.35
2016-05-06T01:26:52.047Z,85.25
2016-05-06T01:27:02.047Z,85.06
2016-05-06T01:27:12.047Z,85.25
2016-05-06T01:27:22.065Z,85.49
2016-05-06T01:27:32.065Z,85.49
2016-05-06T01:27:42.065Z,85.49
2016-05-06T01:27:52.065Z,85.25
2016-05-06T01:28:02.080Z,85.35
2016-05-06T01:28:12.080Z,85.45
2016-05-06T01:28:22.083Z,85.35
2016-05-06T01:28:32.083Z,85.49
2016-05-06T01:28:42.099Z,85.49
2016-05-06T01:28:52.099Z,85.54
2016-05-06T01:29:02.115Z,85.77
2016-05-06T01:29:12.115Z,85.64
2016-05-06T01:29:22.117Z,85.35
2016-05-06T01:29:32.117Z,85.73
2016-05-06T01:29:42.132Z,85.73
2016-05-06T01:29:52.132Z,85.54
2016-05-06T01:30:02.132Z,85.54
2016-05-06T01:30:12.148Z,85.64
2016-05-06T01:30:22.151Z,85.73
2016-05-06T01:30:32.151Z,85.73
2016-05-06T01:30:42.166Z,85.73
2016-05-06T01:30:52.166Z,85.64
2016-05-06T01:31:02.182Z,85.87
2016-05-06T01:31:12.166Z,85.83
2016-05-06T01:31:22.185Z,85.64
2016-05-06T01:31:32.185Z,85.64
2016-05-06T01:31:42.201Z,85.83
2016-05-06T01:31:52.201Z,85.93
2016-05-06T01:32:02.201Z,86.11
2016-05-06T01:32:12.201Z,86.11
2016-05-06T01:32:22.218Z,86.02
2016-05-06T01:32:32.218Z,86.21
2016-05-06T01:32:42.218Z,85.93
2016-05-06T01:32:52.234Z,86.02
2016-05-06T01:33:02.234Z,86.02
2016-05-06T01:33:12.234Z,85.83
2016-05-06T01:33:22.237Z,85.93
2016-05-06T01:33:32.253Z,85.83
2016-05-06T01:33:42.253Z,85.73
2016-05-06T01:33:52.268Z,85.83
2016-05-06T01:34:02.253Z,86.02
2016-05-06T01:34:12.268Z,85.83
2016-05-06T01:34:22.286Z,85.93
2016-05-06T01:34:32.286Z,85.83
2016-05-06T01:34:42.286Z,85.93
2016-05-06T01:34:52.286Z,85.83
2016-05-06T01:35:02.301Z,85.73
2016-05-06T01:35:12.301Z,85.83
2016-05-06T01:35:22.305Z,85.73
2016-05-06T01:35:32.305Z,85.83
2016-05-06T01:35:42.321Z,85.73
2016-05-06T01:35:52.321Z,85.93
2016-05-06T01:36:02.321Z,85.73
2016-05-06T01:36:12.337Z,85.83
2016-05-06T01:36:22.339Z,85.83
2016-05-06T01:36:32.339Z,85.93
2016-05-06T01:36:42.354Z,85.93
2016-05-06T01:36:52.354Z,85.73
2016-05-06T01:37:02.354Z,86.11
2016-05-06T01:37:12.354Z,86.11
2016-05-06T01:37:22.372Z,85.93
2016-05-06T01:37:32.372Z,85.93
2016-05-06T01:37:42.388Z,86.3
2016-05-06T01:37:52.388Z,86.21
2016-05-06T01:38:02.388Z,86.11
2016-05-06T01:38:12.388Z,85.93
2016-05-06T01:38:22.406Z,86.21
2016-05-06T01:38:32.406Z,86.21
2016-05-06T01:38:42.406Z,86.21
2016-05-06T01:38:52.422Z,86.3
2016-05-06T01:39:02.422Z,86.49
2016-05-06T01:39:12.422Z,86.3
2016-05-06T01:39:22.441Z,86.21
2016-05-06T01:39:32.441Z,86.69
2016-05-06T01:39:42.441Z,86.3
2016-05-06T01:39:52.457Z,86.49
2016-05-06T01:40:02.457Z,86.59
2016-05-06T01:40:12.457Z,86.59
2016-05-06T01:40:22.459Z,86.59
2016-05-06T01:40:32.865Z,86.3
2016-05-06T01:40:42.475Z,86.21
2016-05-06T01:40:52.475Z,86.49
2016-05-06T01:41:02.490Z,86.3
2016-05-06T01:41:12.490Z,86.49
2016-05-06T01:41:22.492Z,86.3
2016-05-06T01:41:32.508Z,86.49
2016-05-06T01:41:42.508Z,86.4
2016-05-06T01:41:52.508Z,86.49
2016-05-06T01:42:02.508Z,86.69
2016-05-06T01:42:12.524Z,86.49
2016-05-06T01:42:22.528Z,86.69
2016-05-06T01:42:32.528Z,86.49
2016-05-06T01:42:42.543Z,86.4
2016-05-06T01:42:52.543Z,86.49
2016-05-06T01:43:02.543Z,86.78
2016-05-06T01:43:12.559Z,86.78
2016-05-06T01:43:22.561Z,86.69
2016-05-06T01:43:32.561Z,86.69
2016-05-06T01:43:42.576Z,86.59
2016-05-06T01:43:52.576Z,86.69
2016-05-06T01:44:02.576Z,86.98
2016-05-06T01:44:12.576Z,86.78
2016-05-06T01:44:22.595Z,86.78
2016-05-06T01:44:32.595Z,86.78
2016-05-06T01:44:42.626Z,86.78
2016-05-06T01:44:52.611Z,86.78
2016-05-06T01:45:02.611Z,86.78
2016-05-06T01:45:12.611Z,86.98
2016-05-06T01:45:22.628Z,86.88
2016-05-06T01:45:32.628Z,86.88
2016-05-06T01:45:42.628Z,86.69
2016-05-06T01:45:52.644Z,86.69
2016-05-06T01:46:02.644Z,86.69
2016-05-06T01:46:12.644Z,86.88
2016-05-06T01:46:22.647Z,86.78
2016-05-06T01:46:32.663Z,86.78
2016-05-06T01:46:42.663Z,86.59
2016-05-06T01:46:52.663Z,86.59
2016-05-06T01:47:02.678Z,86.78
2016-05-06T01:47:12.678Z,86.59
2016-05-06T01:47:22.681Z,86.49
2016-05-06T01:47:32.697Z,86.69
2016-05-06T01:47:42.697Z,86.78
2016-05-06T01:47:52.712Z,86.88
2016-05-06T01:48:02.712Z,86.88
2016-05-06T01:48:12.712Z,86.88
2016-05-06T01:48:22.715Z,86.88
2016-05-06T01:48:32.715Z,86.88
2016-05-06T01:48:42.731Z,86.98
2016-05-06T01:48:52.731Z,86.98
2016-05-06T01:49:02.731Z,86.88
2016-05-06T01:49:12.747Z,86.88
2016-05-06T01:49:22.749Z,86.98
2016-05-06T01:49:32.749Z,86.88
2016-05-06T01:49:42.764Z,86.88
2016-05-06T01:49:52.764Z,86.88
2016-05-06T01:50:02.764Z,86.69
2016-05-06T01:50:12.764Z,86.88
2016-05-06T01:50:22.782Z,86.88
2016-05-06T01:50:32.782Z,87.07
2016-05-06T01:50:42.782Z,86.88
2016-05-06T01:50:52.798Z,87.54
2016-05-06T01:51:02.813Z,87.64
2016-05-06T01:51:12.798Z,87.26
2016-05-06T01:51:22.817Z,87.26
2016-05-06T01:51:32.817Z,87.45
2016-05-06T01:51:42.817Z,87.26
2016-05-06T01:51:52.833Z,87.35
2016-05-06T01:52:02.833Z,87.26
2016-05-06T01:52:12.833Z,87.35
2016-05-06T01:52:22.851Z,87.26
2016-05-06T01:52:32.851Z,87.26
2016-05-06T01:52:42.851Z,86.98
2016-05-06T01:52:52.851Z,87.26
2016-05-06T01:53:02.867Z,87.07
2016-05-06T01:53:12.867Z,87.26
2016-05-06T01:53:22.885Z,87.26
2016-05-06T01:53:32.885Z,87.35
2016-05-06T01:53:42.885Z,87.26
2016-05-06T01:53:52.885Z,87.16
2016-05-06T01:54:02.900Z,87.26
2016-05-06T01:54:12.900Z,87.26
2016-05-06T01:54:22.902Z,87.45
2016-05-06T01:54:32.902Z,87.45
2016-05-06T01:54:42.918Z,87.16
2016-05-06T01:54:52.918Z,87.26
2016-05-06T01:55:02.934Z,87.45
2016-05-06T01:55:12.934Z,87.35
2016-05-06T01:55:23.234Z,87.26
2016-05-06T01:55:32.938Z,87.26
2016-05-06T01:55:42.953Z,87.16
2016-05-06T01:55:52.953Z,87.16
2016-05-06T01:56:03.234Z,87.16
2016-05-06T01:56:12.969Z,87.16
2016-05-06T01:56:22.971Z,87.16
2016-05-06T01:56:32.971Z,87.16
2016-05-06T01:56:42.986Z,87.07
2016-05-06T01:56:52.986Z,87.54
2016-05-06T01:57:02.986Z,87.16
2016-05-06T01:57:12.986Z,87.16
2016-05-06T01:57:23.005Z,87.64
2016-05-06T01:57:33.005Z,87.16
2016-05-06T01:57:43.005Z,87.16
2016-05-06T01:57:53.021Z,87.35
2016-05-06T01:58:03.021Z,87.54
2016-05-06T01:58:13.036Z,86.98
2016-05-06T01:58:23.038Z,87.07
2016-05-06T01:58:33.038Z,87.16
2016-05-06T01:58:43.038Z,87.54
2016-05-06T01:58:53.054Z,87.16
2016-05-06T01:59:03.054Z,87.64
2016-05-06T01:59:13.054Z,87.54
2016-05-06T01:59:23.057Z,87.54
2016-05-06T01:59:33.073Z,87.54
2016-05-06T01:59:43.073Z,87.74
2016-05-06T01:59:53.073Z,87.54
2016-05-06T02:00:03.088Z,87.54
2016-05-06T02:00:13.088Z,87.45
2016-05-06T02:00:23.107Z,87.26
2016-05-06T02:00:33.107Z,87.54
2016-05-06T02:00:43.107Z,87.35
2016-05-06T02:00:53.107Z,87.35
2016-05-06T02:01:03.107Z,87.26
2016-05-06T02:01:13.122Z,87.26
2016-05-06T02:01:23.124Z,87.45
2016-05-06T02:01:33.140Z,87.26
2016-05-06T02:01:43.140Z,87.26
2016-05-06T02:01:53.140Z,87.26
2016-05-06T02:02:03.140Z,87.26
2016-05-06T02:02:13.156Z,87.83
2016-05-06T02:02:23.159Z,87.45
2016-05-06T02:02:33.159Z,87.83
2016-05-06T02:02:43.174Z,87.45
2016-05-06T02:02:53.174Z,88.02
2016-05-06T02:03:03.174Z,87.93
2016-05-06T02:03:13.190Z,87.54
2016-05-06T02:03:23.192Z,87.64
2016-05-06T02:03:33.192Z,87.74
2016-05-06T02:03:43.208Z,87.83
2016-05-06T02:03:53.208Z,87.74
2016-05-06T02:04:03.208Z,87.83
2016-05-06T02:04:13.208Z,87.64
2016-05-06T02:04:23.227Z,87.64
2016-05-06T02:04:33.227Z,87.74
2016-05-06T02:04:43.227Z,87.74
2016-05-06T02:04:53.243Z,87.83
2016-05-06T02:05:03.243Z,87.64
2016-05-06T02:05:13.243Z,87.64
2016-05-06T02:05:23.260Z,87.74
2016-05-06T02:05:33.260Z,87.45
2016-05-06T02:05:43.260Z,87.35
2016-05-06T02:05:53.276Z,87.74
2016-05-06T02:06:03.276Z,87.54
2016-05-06T02:06:13.276Z,87.16
2016-05-06T02:06:23.279Z,87.74
2016-05-06T02:06:33.295Z,87.93
2016-05-06T02:06:43.295Z,87.74
2016-05-06T02:06:53.310Z,87.74
2016-05-06T02:07:03.310Z,88.02
2016-05-06T02:07:13.310Z,88.12
2016-05-06T02:07:23.312Z,88.12
2016-05-06T02:07:33.312Z,88.21
2016-05-06T02:07:43.328Z,88.4
2016-05-06T02:07:53.328Z,88.4
2016-05-06T02:08:03.344Z,88.21
2016-05-06T02:08:13.344Z,88.4
2016-05-06T02:08:23.347Z,88.21
2016-05-06T02:08:33.347Z,88.12
2016-05-06T02:08:43.362Z,88.21
2016-05-06T02:08:53.362Z,88.12
2016-05-06T02:09:03.362Z,88.21